Time;durP1;ratioP1;P1;durP2;ratioP2;P2;SDS_P1;SDS_P2;PMS_P1;PMS_P2;Temp;Humidity;BMP_temperature;BMP_pressure;BME280_temperature;BME280_humidity;BME280_pressure;Samples;Min_cycle;Max_cycle;Signal;HPM_P1;HPM_P2
2022/10/09 00:01:46;;;;;;;31.40;18.15;;;;;;;4.99;100.00;99701.26;1617357;88;20976;-75
2022/10/09 00:04:14;;;;;;;31.57;18.05;;;;;;;5.01;100.00;99702.49;1617447;88;21133;-75
2022/10/09 00:06:41;;;;;;;29.45;17.75;;;;;;;5.01;100.00;99702.05;1617471;88;20968;-75
2022/10/09 00:09:07;;;;;;;26.87;16.70;;;;;;;5.01;100.00;99690.45;1617494;88;21504;-75
2022/10/09 00:11:34;;;;;;;25.43;16.50;;;;;;;5.03;100.00;99688.71;1617413;88;21535;-75
2022/10/09 00:14:02;;;;;;;40.25;18.55;;;;;;;5.05;100.00;99689.54;1617373;88;21079;-75
2022/10/09 00:16:30;;;;;;;28.87;17.55;;;;;;;5.05;100.00;99685.67;1617442;88;20992;-75
2022/10/09 00:18:57;;;;;;;23.25;16.67;;;;;;;5.05;100.00;99679.66;1617477;88;21000;-75
2022/10/09 00:21:29;;;;;;;24.10;14.33;;;;;;;5.06;100.00;99677.06;1617510;88;21051;-75
2022/10/09 00:23:58;;;;;;;;;;;;;;;5.06;100.00;99673.20;1620070;88;21812;-75
2022/10/09 00:26:25;;;;;;;22.05;15.00;;;;;;;5.05;100.00;99668.91;1612126;87;20478;-75
2022/10/09 00:28:52;;;;;;;21.95;16.85;;;;;;;5.03;100.00;99665.51;1617468;88;21123;-75
2022/10/09 00:31:19;;;;;;;24.12;16.00;;;;;;;5.02;100.00;99666.38;1617485;88;20996;-75
2022/10/09 00:33:46;;;;;;;21.40;14.85;;;;;;;5.02;100.00;99666.82;1617508;88;21103;-75
2022/10/09 00:36:21;;;;;;;19.55;14.00;;;;;;;5.00;100.00;99659.11;1617434;88;21161;-75
2022/10/09 00:38:48;;;;;;;21.00;14.28;;;;;;;4.99;100.00;99659.16;1617636;88;21008;-76
2022/10/09 00:41:21;;;;;;;20.50;13.25;;;;;;;4.97;100.00;99660.91;1617478;88;21012;-76
2022/10/09 00:43:53;;;;;;;19.95;14.78;;;;;;;4.93;100.00;99663.97;1617641;88;21499;-76
2022/10/09 00:46:47;;;;;;;21.68;14.63;;;;;;;4.91;100.00;99663.58;1617650;88;21036;-76
2022/10/09 00:49:29;;;;;;;18.57;13.50;;;;;;;4.89;100.00;99659.73;1617501;88;21781;-76
2022/10/09 00:51:59;;;;;;;20.70;13.58;;;;;;;4.87;100.00;99656.76;1615505;88;21040;-76
2022/10/09 00:54:29;;;;;;;20.12;13.78;;;;;;;4.85;100.00;99662.78;1617479;87;21047;-76
2022/10/09 00:56:56;;;;;;;22.87;14.33;;;;;;;4.83;100.00;99663.24;1599846;88;21000;-76
2022/10/09 00:59:24;;;;;;;20.72;15.48;;;;;;;4.81;100.00;99655.97;1617486;88;20996;-76
2022/10/09 01:01:50;;;;;;;22.37;15.20;;;;;;;4.80;100.00;99653.41;1617376;88;21125;-76
2022/10/09 01:04:17;;;;;;;22.45;14.90;;;;;;;4.77;100.00;99659.48;1599237;88;20996;-76
2022/10/09 01:06:49;;;;;;;22.32;15.23;;;;;;;4.77;100.00;99656.06;1617462;88;21044;-76
2022/10/09 01:09:23;;;;;;;;;;;;;;;4.73;100.00;99656.98;1620116;88;21052;-76
2022/10/09 01:12:13;;;;;;;23.50;14.40;;;;;;;4.69;100.00;99657.45;1609152;88;20093;-77
2022/10/09 01:14:50;;;;;;;19.98;14.90;;;;;;;4.62;100.00;99652.40;1610697;88;21119;-76
2022/10/09 01:17:25;;;;;;;22.05;14.60;;;;;;;4.52;100.00;99651.70;1614547;88;20976;-76
2022/10/09 01:20:25;;;;;;;20.77;13.95;;;;;;;4.45;100.00;99658.65;1617370;88;21070;-75
2022/10/09 01:22:59;;;;;;;17.75;13.50;;;;;;;4.42;100.00;99654.82;1595391;90;21150;-76
2022/10/09 01:25:47;;;;;;;19.67;13.50;;;;;;;4.37;100.00;99657.92;1602860;88;20974;-76
2022/10/09 01:28:15;;;;;;;18.23;13.03;;;;;;;4.33;100.00;99648.96;1657086;86;21055;-76
2022/10/09 01:30:41;;;;;;;21.95;14.50;;;;;;;4.30;100.00;99651.57;1650156;86;21012;-76
2022/10/09 01:33:08;;;;;;;19.02;14.35;;;;;;;4.29;100.00;99646.00;1650151;86;21015;-76
2022/10/09 01:35:35;;;;;;;23.57;15.48;;;;;;;4.27;100.00;99649.03;1659689;86;21003;-76
2022/10/09 01:38:01;;;;;;;19.50;13.25;;;;;;;4.25;100.00;99650.77;1659601;86;21546;-76
2022/10/09 01:40:28;;;;;;;17.75;12.85;;;;;;;4.23;100.00;99649.50;1657732;85;21472;-76
2022/10/09 01:42:55;;;;;;;19.55;12.75;;;;;;;4.23;100.00;99657.66;1657418;86;21059;-76
2022/10/09 01:45:22;;;;;;;20.52;13.18;;;;;;;4.21;100.00;99655.53;1659584;86;21015;-76
2022/10/09 01:47:49;;;;;;;26.73;13.95;;;;;;;4.19;100.00;99655.59;1659700;86;21476;-76
2022/10/09 01:50:28;;;;;;;21.12;14.23;;;;;;;4.18;100.00;99658.18;1658434;86;21019;-76
2022/10/09 01:53:02;;;;;;;18.80;12.53;;;;;;;4.18;100.00;99659.03;1658806;86;21131;-76
2022/10/09 01:55:45;;;;;;;16.95;11.50;;;;;;;4.15;100.00;99659.92;1665003;85;21042;-76
2022/10/09 01:58:27;;;;;;;18.27;13.48;;;;;;;4.14;100.00;99666.37;1671892;85;21031;-75
2022/10/09 02:01:17;;;;;;;21.93;13.58;;;;;;;4.10;100.00;99668.13;1672052;85;21491;-75
2022/10/09 02:03:47;;;;;;;27.42;14.07;;;;;;;4.09;100.00;99671.56;1671921;85;21007;-76
2022/10/09 02:06:16;;;;;;;15.13;12.68;;;;;;;4.07;100.00;99672.45;1685585;84;21138;-76
2022/10/09 02:08:44;;;;;;;17.62;11.28;;;;;;;4.02;100.00;99665.21;1693515;84;21521;-76
2022/10/09 02:11:18;;;;;;;19.75;12.40;;;;;;;3.99;100.00;99661.41;1693321;84;21058;-76
2022/10/09 02:13:45;;;;;;;25.52;12.98;;;;;;;3.98;100.00;99658.42;1692995;84;21059;-76
2022/10/09 02:16:20;;;;;;;19.42;12.43;;;;;;;3.97;100.00;99660.14;1693552;84;21158;-75
2022/10/09 02:19:01;;;;;;;22.70;13.93;;;;;;;3.96;100.00;99651.16;1693398;84;20984;-76
2022/10/09 02:21:49;;;;;;;20.43;13.62;;;;;;;3.95;100.00;99650.30;1692301;84;21042;-76
2022/10/09 02:24:18;;;;;;;14.63;11.10;;;;;;;3.94;100.00;99653.74;1693744;84;21062;-75
2022/10/09 02:26:45;;;;;;;17.50;11.85;;;;;;;3.91;100.00;99656.34;1691657;84;21513;-75
2022/10/09 02:29:12;;;;;;;20.48;12.37;;;;;;;3.86;100.00;99649.11;1672501;85;21038;-76
2022/10/09 02:31:40;;;;;;;18.50;12.25;;;;;;;3.81;100.00;99647.02;1687679;84;21196;-76
2022/10/09 02:34:11;;;;;;;20.85;12.58;;;;;;;3.79;100.00;99651.35;1693421;84;21443;-76
2022/10/09 02:36:38;;;;;;;21.02;13.30;;;;;;;3.76;100.00;99656.53;1692959;84;21048;-76
2022/10/09 02:39:05;;;;;;;14.78;10.95;;;;;;;3.75;100.00;99647.10;1693232;84;21030;-75
2022/10/09 02:41:31;;;;;;;16.35;10.70;;;;;;;3.76;100.00;99640.66;1693768;84;21400;-76
2022/10/09 02:43:58;;;;;;;18.55;11.75;;;;;;;3.77;100.00;99647.94;1693379;84;21247;-76
2022/10/09 02:46:24;;;;;;;16.70;12.40;;;;;;;3.76;100.00;99641.95;1693476;84;21027;-76
2022/10/09 02:48:51;;;;;;;26.37;12.05;;;;;;;3.77;100.00;99645.37;1693382;84;20987;-76
2022/10/09 02:51:17;;;;;;;20.27;11.28;;;;;;;3.76;100.00;99645.80;1693281;84;20979;-76
2022/10/09 02:53:44;;;;;;;13.98;10.28;;;;;;;3.75;100.00;99642.81;1693294;84;21027;-76
2022/10/09 02:56:11;;;;;;;12.30;9.58;;;;;;;3.74;100.00;99649.26;1676636;84;21149;-76
2022/10/09 02:58:38;;;;;;;15.50;10.50;;;;;;;3.72;100.00;99646.70;1666721;85;20968;-76
2022/10/09 03:01:05;;;;;;;15.23;10.03;;;;;;;3.68;100.00;99641.59;1671866;85;21016;-76
2022/10/09 03:03:32;;;;;;;12.25;9.98;;;;;;;3.67;100.00;99639.89;1671838;85;21031;-76
2022/10/09 03:06:10;;;;;;;17.60;10.30;;;;;;;3.68;100.00;99644.17;1662217;85;21019;-76
2022/10/09 03:08:39;;;;;;;12.33;8.65;;;;;;;3.68;100.00;99641.16;1664721;86;21051;-76
2022/10/09 03:11:06;;;;;;;14.28;9.05;;;;;;;3.68;100.00;99639.02;1663040;85;21519;-76
2022/10/09 03:13:32;;;;;;;10.08;7.85;;;;;;;3.67;100.00;99634.75;1664661;85;21015;-76
2022/10/09 03:16:14;;;;;;;12.43;8.48;;;;;;;3.66;100.00;99635.61;1664717;85;21605;-76
2022/10/09 03:18:42;;;;;;;13.28;8.80;;;;;;;3.65;100.00;99630.05;1659763;85;21091;-76
2022/10/09 03:21:21;;;;;;;11.90;8.45;;;;;;;3.65;100.00;99632.63;1669915;85;21193;-76
2022/10/09 03:23:48;;;;;;;12.23;8.53;;;;;;;3.65;100.00;99624.91;1651944;85;21444;-76
2022/10/09 03:26:17;;;;;;;11.38;8.13;;;;;;;3.64;100.00;99630.92;1666858;85;21486;-75
2022/10/09 03:28:47;;;;;;;13.03;8.88;;;;;;;3.64;100.00;99639.92;1671849;85;21055;-76
2022/10/09 03:31:16;;;;;;;11.45;8.73;;;;;;;3.62;100.00;99633.50;1672303;85;21091;-76
2022/10/09 03:33:42;;;;;;;18.77;9.53;;;;;;;3.59;100.00;99627.56;1655617;85;21160;-76
2022/10/09 03:36:09;;;;;;;84.87;11.68;;;;;;;3.58;100.00;99628.44;1669226;85;21007;-76
2022/10/09 03:38:35;;;;;;;14.20;9.78;;;;;;;3.57;100.00;99626.73;1670240;85;21023;-76
2022/10/09 03:41:03;;;;;;;11.10;8.95;;;;;;;3.60;100.00;99633.09;1668562;85;21059;-76
2022/10/09 03:43:30;;;;;;;11.65;8.83;;;;;;;3.65;100.00;99627.48;1671972;85;20980;-76
2022/10/09 03:45:56;;;;;;;11.70;9.13;;;;;;;3.68;100.00;99628.30;1671812;85;21153;-76
2022/10/09 03:48:23;;;;;;;15.93;9.50;;;;;;;3.69;100.00;99631.30;1671892;85;21075;-76
2022/10/09 03:50:49;;;;;;;12.23;9.60;;;;;;;3.71;100.00;99631.28;1671861;85;20988;-76
2022/10/09 03:53:16;;;;;;;11.03;8.10;;;;;;;3.70;100.00;99626.56;1667261;85;20983;-76
2022/10/09 03:55:43;;;;;;;11.60;8.50;;;;;;;3.70;100.00;99632.14;1663952;85;21066;-76
2022/10/09 03:58:10;;;;;;;14.58;8.73;;;;;;;3.68;100.00;99627.02;1659703;86;21431;-76
2022/10/09 04:00:37;;;;;;;11.80;8.98;;;;;;;3.66;100.00;99629.19;1659674;86;21531;-76
2022/10/09 04:03:04;;;;;;;16.82;9.05;;;;;;;3.63;100.00;99629.21;1659871;85;21562;-75
2022/10/09 04:05:34;;;;;;;13.95;9.38;;;;;;;3.61;100.00;99629.66;1684472;85;20955;-75
2022/10/09 04:08:00;;;;;;;12.58;9.40;;;;;;;3.58;100.00;99630.57;1688210;85;20978;-76
2022/10/09 04:10:27;;;;;;;11.48;8.60;;;;;;;3.56;100.00;99633.59;1688276;85;21157;-76
2022/10/09 04:12:55;;;;;;;12.60;8.85;;;;;;;3.55;100.00;99637.46;1688168;85;20966;-76
2022/10/09 04:15:23;;;;;;;10.78;8.38;;;;;;;3.52;100.00;99632.34;1688249;85;21019;-76
2022/10/09 04:17:51;;;;;;;13.05;9.45;;;;;;;3.49;100.00;99630.66;1688296;85;20963;-76
2022/10/09 04:20:19;;;;;;;14.58;9.40;;;;;;;3.47;100.00;99629.81;1688282;85;20971;-76
2022/10/09 04:22:47;;;;;;;13.93;9.48;;;;;;;3.48;100.00;99642.23;1688183;85;21189;-76
2022/10/09 04:25:14;;;;;;;16.30;8.85;;;;;;;3.50;100.00;99639.22;1688160;85;21586;-74
2022/10/09 04:27:41;;;;;;;16.35;9.08;;;;;;;3.52;100.00;99638.34;1688202;85;21598;-76
2022/10/09 04:30:10;;;;;;;23.10;10.72;;;;;;;3.54;100.00;99637.05;1688247;85;21031;-76
2022/10/09 04:32:37;;;;;;;16.87;10.40;;;;;;;3.53;100.00;99637.48;1688272;85;21027;-76
2022/10/09 04:35:05;;;;;;;19.55;10.45;;;;;;;3.55;100.00;99639.60;1688307;85;21160;-76
2022/10/09 04:37:31;;;;;;;15.05;10.68;;;;;;;3.56;100.00;99636.16;1688276;85;21098;-76
2022/10/09 04:39:58;;;;;;;20.20;8.30;;;;;;;3.58;100.00;99638.72;1688167;85;21507;-76
2022/10/09 04:42:25;;;;;;;13.78;8.68;;;;;;;3.60;100.00;99640.38;1688137;85;21023;-77
2022/10/09 04:44:51;;;;;;;10.63;7.92;;;;;;;3.66;100.00;99640.76;1688253;85;20979;-76
2022/10/09 04:47:19;;;;;;;15.75;8.00;;;;;;;3.70;100.00;99642.44;1688233;85;21215;-77
2022/10/09 04:49:46;;;;;;;15.75;7.72;;;;;;;3.75;100.00;99647.95;1688086;85;21058;-76
2022/10/09 04:52:14;;;;;;;14.30;7.45;;;;;;;3.80;100.00;99649.16;1688274;85;21034;-77
2022/10/09 04:54:42;;;;;;;8.45;6.37;;;;;;;3.87;100.00;99647.38;1688151;85;21121;-76
2022/10/09 04:57:08;;;;;;;9.00;6.40;;;;;;;3.96;100.00;99652.00;1670240;85;20999;-76
2022/10/09 04:59:36;;;;;;;13.70;7.80;;;;;;;4.08;100.00;99645.84;1665162;85;20964;-77
2022/10/09 05:02:03;;;;;;;12.47;9.15;;;;;;;4.19;100.00;99642.72;1671950;85;21019;-76
2022/10/09 05:04:29;;;;;;;30.35;11.20;;;;;;;4.29;100.00;99642.99;1671901;85;21025;-77
2022/10/09 05:06:56;;;;;;;19.62;8.10;;;;;;;4.39;100.00;99645.02;1666876;85;21117;-76
2022/10/09 05:09:23;;;;;;;17.35;8.35;;;;;;;4.50;100.00;99652.16;1666909;85;21051;-77
2022/10/09 05:11:49;;;;;;;11.15;8.18;;;;;;;4.62;100.00;99657.11;1667047;85;21444;-77
2022/10/09 05:14:16;;;;;;;19.80;9.98;;;;;;;4.75;100.00;99653.94;1648953;85;21055;-77
2022/10/09 05:16:44;;;;;;;12.90;10.35;;;;;;;4.85;100.00;99651.19;1672168;85;21560;-77
2022/10/09 05:19:12;;;;;;;13.72;9.70;;;;;;;4.95;100.00;99646.75;1661748;85;21598;-77
2022/10/09 05:21:38;;;;;;;14.25;8.88;;;;;;;5.04;100.00;99644.45;1672024;85;21003;-77
2022/10/09 05:24:05;;;;;;;12.50;8.73;;;;;;;5.12;100.00;99640.03;1666777;85;21146;-77
2022/10/09 05:26:32;;;;;;;13.45;7.53;;;;;;;5.17;100.00;99640.81;1671945;85;21114;-77
2022/10/09 05:28:59;;;;;;;11.70;7.87;;;;;;;5.25;100.00;99635.50;1671955;85;20983;-77
2022/10/09 05:31:27;;;;;;;13.15;8.88;;;;;;;5.34;100.00;99646.53;1667152;85;21051;-77
2022/10/09 05:33:55;;;;;;;15.70;9.25;;;;;;;5.40;100.00;99654.14;1672113;85;21492;-76
2022/10/09 05:36:22;;;;;;;13.22;9.75;;;;;;;5.45;100.00;99657.93;1620187;87;21279;-76
2022/10/09 05:38:48;;;;;;;16.17;9.68;;;;;;;5.51;100.00;99660.41;1633702;87;20984;-77
2022/10/09 05:41:16;;;;;;;16.35;10.78;;;;;;;5.57;100.00;99660.31;1627410;88;20995;-77
2022/10/09 05:43:46;;;;;;;17.75;12.30;;;;;;;5.63;100.00;99656.74;1619999;88;21087;-77
2022/10/09 05:46:23;;;;;;;15.53;11.78;;;;;;;5.70;100.00;99657.05;1665888;85;21031;-76
2022/10/09 05:48:56;;;;;;;18.92;11.75;;;;;;;5.78;100.00;99652.61;1667810;85;20976;-76
2022/10/09 05:51:27;;;;;;;15.75;10.70;;;;;;;5.88;100.00;99651.13;1664935;85;21012;-77
2022/10/09 05:53:54;;;;;;;17.37;9.70;;;;;;;6.01;100.00;99659.47;1663868;85;21047;-77
2022/10/09 05:56:35;;;;;;;14.95;11.20;;;;;;;6.11;100.00;99657.56;1666723;85;21016;-76
2022/10/09 05:59:04;;;;;;;16.60;11.53;;;;;;;6.19;100.00;99659.56;1667057;85;21081;-76
2022/10/09 06:01:33;;;;;;;22.05;12.70;;;;;;;6.32;100.00;99657.56;1666773;85;21473;-77
2022/10/09 06:04:01;;;;;;;22.70;13.45;;;;;;;6.43;100.00;99656.88;1667470;85;21004;-77
2022/10/09 06:06:30;;;;;;;20.88;11.88;;;;;;;6.53;100.00;99652.78;1671307;85;20976;-77
2022/10/09 06:08:56;;;;;;;22.82;12.30;;;;;;;6.62;100.00;99654.30;1662880;85;21058;-76
2022/10/09 06:11:30;;;;;;;22.95;12.23;;;;;;;6.69;100.00;99651.99;1670847;85;21095;-76
2022/10/09 06:14:00;;;;;;;16.75;11.25;;;;;;;6.76;100.00;99658.73;1672006;85;20951;-76
2022/10/09 06:16:30;;;;;;;19.42;12.43;;;;;;;6.84;100.00;99655.51;1665613;85;21020;-77
2022/10/09 06:18:58;;;;;;;20.02;12.40;;;;;;;6.94;100.00;99647.11;1667211;85;20997;-76
2022/10/09 06:21:25;;;;;;;18.55;11.57;;;;;;;7.05;100.00;99650.72;1671942;85;21024;-77
2022/10/09 06:23:55;;;;;;;15.83;11.12;;;;;;;7.17;100.00;99656.90;1671902;85;21080;-77
2022/10/09 06:26:22;;;;;;;24.65;12.35;;;;;;;7.28;100.00;99658.77;1671862;85;21178;-77
2022/10/09 06:28:49;;;;;;;31.25;14.28;;;;;;;7.42;100.00;99659.25;1666688;85;20971;-77
2022/10/09 06:31:19;;;;;;;22.75;13.93;;;;;;;7.56;100.00;99656.33;1679499;85;21015;-77
2022/10/09 06:33:46;;;;;;;24.35;14.60;;;;;;;7.69;100.00;99662.02;1679507;85;21168;-77
2022/10/09 06:36:19;;;;;;;32.80;17.40;;;;;;;7.79;100.00;99656.57;1672089;85;21090;-77
2022/10/09 06:38:47;;;;;;;28.50;14.53;;;;;;;7.91;100.00;99661.41;1666238;85;21140;-77
2022/10/09 06:41:16;;;;;;;28.62;12.65;;;;;;;8.03;100.00;99665.37;1669055;85;20996;-77
2022/10/09 06:43:45;;;;;;;27.52;12.65;;;;;;;8.12;100.00;99665.58;1671885;85;21027;-77
2022/10/09 06:46:11;;;;;;;20.40;14.73;;;;;;;8.19;100.00;99669.23;1650811;86;20991;-77
2022/10/09 06:48:39;;;;;;;29.52;13.95;;;;;;;8.29;100.00;99676.30;1666227;85;20967;-77
2022/10/09 06:51:11;;;;;;;22.30;12.07;;;;;;;8.42;100.00;99672.93;1671810;85;21176;-78
2022/10/09 06:53:42;;;;;;;22.05;11.65;;;;;;;8.58;100.00;99672.45;1670795;85;21566;-78
2022/10/09 06:56:09;;;;;;;22.25;12.63;;;;;;;8.76;100.00;99674.08;1669601;84;21488;-77
2022/10/09 06:58:39;;;;;;;24.57;15.05;;;;;;;8.91;100.00;99677.05;1693117;84;21002;-78
2022/10/09 07:01:15;;;;;;;19.77;16.10;;;;;;;9.07;100.00;99668.77;1692564;84;21007;-78
2022/10/09 07:03:44;;;;;;;28.05;18.05;;;;;;;9.26;100.00;99668.56;1678923;84;21157;-76
2022/10/09 07:06:20;;;;;;;21.25;15.30;;;;;;;9.41;100.00;99668.50;1670297;85;21565;-76
2022/10/09 07:08:51;;;;;;;24.70;15.20;;;;;;;9.55;100.00;99676.69;1675862;85;21027;-77
2022/10/09 07:11:20;;;;;;;31.00;19.35;;;;;;;9.69;100.00;99669.27;1678585;85;20984;-77
2022/10/09 07:13:49;;;;;;;25.85;17.57;;;;;;;9.83;100.00;99672.22;1681966;85;21454;-76
2022/10/09 07:16:27;;;;;;;28.10;17.45;;;;;;;9.96;100.00;99664.86;1687264;85;21185;-76
2022/10/09 07:18:54;;;;;;;21.55;15.50;;;;;;;10.10;100.00;99663.06;1676036;84;21505;-76
2022/10/09 07:21:20;;;;;;;20.55;14.00;;;;;;;10.25;100.00;99663.37;1684565;84;21051;-76
2022/10/09 07:23:47;;;;;;;22.22;13.40;;;;;;;10.42;100.00;99664.48;1673004;85;20975;-76
2022/10/09 07:26:23;;;;;;;20.25;12.93;;;;;;;10.56;100.00;99664.38;1670732;85;21121;-76
2022/10/09 07:28:49;;;;;;;21.57;13.08;;;;;;;10.73;100.00;99658.97;1678293;85;21264;-75
2022/10/09 07:31:16;;;;;;;22.45;13.35;;;;;;;10.93;100.00;99656.44;1670709;85;21071;-77
2022/10/09 07:33:49;;;;;;;26.73;13.28;;;;;;;11.16;100.00;99651.16;1678181;85;21058;-75
2022/10/09 07:36:16;;;;;;;19.75;12.13;;;;;;;11.42;100.00;99651.80;1675528;85;21098;-76
2022/10/09 07:38:51;;;;;;;23.77;10.53;;;;;;;11.69;100.00;99649.34;1670524;85;21086;-75
2022/10/09 07:41:17;;;;;;;20.77;11.38;;;;;;;11.92;100.00;99653.14;1677519;85;21185;-77
2022/10/09 07:43:44;;;;;;;23.62;10.85;;;;;;;12.09;100.00;99647.17;1686700;84;20962;-75
2022/10/09 07:46:14;;;;;;;16.57;11.08;;;;;;;12.24;100.00;99647.77;1679518;85;21633;-75
2022/10/09 07:48:40;;;;;;;15.53;10.43;;;;;;;12.37;100.00;99643.71;1678703;85;20971;-75
2022/10/09 07:51:11;;;;;;;16.62;9.70;;;;;;;12.50;99.53;99641.37;1675846;85;20956;-76
2022/10/09 07:53:39;;;;;;;19.10;9.15;;;;;;;12.64;98.07;99644.63;1671965;85;21167;-76
2022/10/09 07:56:06;;;;;;;28.25;9.10;;;;;;;12.81;96.96;99635.99;1676035;85;21054;-77
2022/10/09 07:58:34;;;;;;;14.73;8.08;;;;;;;12.94;96.38;99641.88;1675693;85;21519;-75
2022/10/09 08:01:07;;;;;;;15.83;8.33;;;;;;;13.07;95.02;99640.35;1678462;85;21023;-76
2022/10/09 08:03:35;;;;;;;10.15;7.03;;;;;;;13.21;93.88;99636.23;1678417;85;20967;-76
2022/10/09 08:06:02;;;;;;;12.70;8.40;;;;;;;13.34;92.44;99644.72;1657292;86;21809;-76
2022/10/09 08:08:29;;;;;;;17.30;8.35;;;;;;;13.46;91.22;99641.94;1678394;85;21035;-76
2022/10/09 08:10:57;;;;;;;16.42;8.28;;;;;;;13.58;90.32;99640.48;1666590;85;20971;-76
2022/10/09 08:13:24;;;;;;;15.00;7.30;;;;;;;13.67;89.11;99630.39;1670486;85;21058;-77
2022/10/09 08:15:52;;;;;;;7.85;5.70;;;;;;;13.79;87.43;99634.13;1678572;85;21050;-76
2022/10/09 08:18:19;;;;;;;10.60;4.95;;;;;;;13.92;85.22;99629.97;1678725;85;21161;-76
2022/10/09 08:20:58;;;;;;;11.65;4.83;;;;;;;14.06;83.82;99631.84;1672706;85;21419;-76
2022/10/09 08:23:25;;;;;;;16.37;6.35;;;;;;;14.18;81.35;99627.75;1682675;85;21019;-76
2022/10/09 08:25:52;;;;;;;13.18;5.15;;;;;;;14.30;79.90;99622.69;1687481;85;20967;-76
2022/10/09 08:28:18;;;;;;;8.45;4.85;;;;;;;14.43;79.05;99624.19;1687323;85;21174;-76
2022/10/09 08:30:45;;;;;;;9.53;4.65;;;;;;;14.54;77.27;99625.77;1666590;85;21289;-76
2022/10/09 08:33:13;;;;;;;4.70;3.58;;;;;;;14.71;75.03;99612.59;1665612;85;21070;-76
2022/10/09 08:35:39;;;;;;;9.33;3.70;;;;;;;14.71;75.03;99612.59;1666692;85;21582;-76
2022/10/09 08:38:06;;;;;;;10.55;3.15;;;;;;;14.90;72.76;99599.30;1669152;85;21023;-77
2022/10/09 08:40:55;;;;;;;9.70;4.28;;;;;;;15.01;71.84;99600.83;1665895;85;21082;-76
2022/10/09 08:43:28;;;;;;;6.70;3.50;;;;;;;15.01;71.84;99600.83;1661900;85;21168;-75
2022/10/09 08:45:54;;;;;;;7.40;3.10;;;;;;;15.16;70.04;99597.81;1675114;85;21031;-75
2022/10/09 08:48:21;;;;;;;3.70;2.40;;;;;;;15.25;68.82;99591.17;1679539;84;21451;-74
2022/10/09 08:50:52;;;;;;;5.25;2.67;;;;;;;15.41;67.74;99599.81;1676643;85;21482;-76
2022/10/09 08:53:39;;;;;;;10.80;3.42;;;;;;;15.41;67.74;99599.81;1692396;84;20970;-76
2022/10/09 08:56:06;;;;;;;8.58;3.02;;;;;;;15.57;66.79;99601.95;1693313;84;21172;-73
2022/10/09 08:58:35;;;;;;;4.97;2.90;;;;;;;15.66;66.62;99604.48;1693160;84;21557;-77
2022/10/09 09:01:13;;;;;;;6.20;2.70;;;;;;;15.66;66.62;99604.48;1693206;84;21099;-77
2022/10/09 09:04:01;;;;;;;4.15;2.67;;;;;;;15.73;66.01;99604.49;1682776;84;21062;-76
2022/10/09 09:07:18;;;;;;;6.08;3.08;;;;;;;15.77;65.94;99604.69;1678690;85;20979;-75
2022/10/09 09:10:11;;;;;;;7.08;3.05;;;;;;;15.87;65.85;99607.58;1673116;85;21171;-76
2022/10/09 09:13:02;;;;;;;7.17;2.50;;;;;;;15.92;65.26;99604.22;1670278;85;20967;-76
2022/10/09 09:15:48;;;;;;;3.22;2.70;;;;;;;15.97;65.70;99600.85;1671249;84;20967;-76
2022/10/09 09:18:25;;;;;;;6.42;2.90;;;;;;;16.03;65.56;99598.67;1628277;86;38180;-76
2022/10/09 09:20:54;;;;;;;10.72;3.20;;;;;;;16.07;64.54;99600.17;1672131;85;21062;-78
2022/10/09 09:23:28;;;;;;;7.33;2.92;;;;;;;16.11;64.56;99587.24;1664889;85;21247;-76
2022/10/09 09:25:55;;;;;;;5.95;2.87;;;;;;;16.19;64.66;99591.99;1680194;85;20967;-76
2022/10/09 09:28:27;;;;;;;6.33;2.80;;;;;;;16.25;64.01;99589.47;1678600;85;20979;-76
2022/10/09 09:31:02;;;;;;;7.43;3.20;;;;;;;16.30;63.54;99590.03;1678231;85;21003;-76
2022/10/09 09:33:49;;;;;;;4.30;2.60;;;;;;;16.36;63.70;99587.87;1649531;86;21467;-77
2022/10/09 09:36:33;;;;;;;7.25;2.87;;;;;;;16.44;63.72;99589.52;1675605;85;21239;-78
2022/10/09 09:39:00;;;;;;;7.70;3.72;;;;;;;16.52;63.71;99576.76;1675078;85;21078;-78
2022/10/09 09:41:27;;;;;;;5.78;3.10;;;;;;;16.64;63.84;99577.77;1676154;85;21008;-78
2022/10/09 09:43:54;;;;;;;7.28;3.08;;;;;;;16.73;63.51;99575.88;1654363;85;21043;-78
2022/10/09 09:46:23;;;;;;;7.97;3.12;;;;;;;16.81;63.18;99574.89;1675901;85;21003;-77
2022/10/09 09:48:49;;;;;;;6.47;2.72;;;;;;;16.90;62.57;99578.71;1678639;85;21192;-78
2022/10/09 09:51:23;;;;;;;4.50;2.50;;;;;;;16.98;62.23;99584.31;1672981;85;21431;-78
2022/10/09 09:53:59;;;;;;;6.45;2.67;;;;;;;17.05;62.00;99577.69;1678240;85;21019;-78
2022/10/09 09:56:42;;;;;;;6.45;3.10;;;;;;;17.13;61.69;99571.94;1667849;85;21571;-78
2022/10/09 09:59:32;;;;;;;2.98;2.52;;;;;;;17.19;61.26;99572.82;1676146;85;21484;-78
2022/10/09 10:02:07;;;;;;;4.10;2.58;;;;;;;17.24;60.46;99568.11;1675918;85;21423;-79
2022/10/09 10:04:34;;;;;;;4.22;2.40;;;;;;;17.31;60.37;99567.23;1678166;85;21035;-79
2022/10/09 10:07:02;;;;;;;6.50;3.02;;;;;;;17.40;60.47;99562.65;1678788;85;21535;-80
2022/10/09 10:09:30;;;;;;;5.53;2.37;;;;;;;17.49;59.87;99558.09;1678128;85;21024;-78
2022/10/09 10:12:08;;;;;;;5.28;2.70;;;;;;;17.58;59.48;99556.63;1678470;85;21484;-78
2022/10/09 10:14:30;;;;;;;7.05;2.40;;;;;;;17.66;59.48;99551.23;1673850;85;21412;-78
2022/10/09 10:16:59;;;;;;;21.68;3.10;;;;;;;17.79;58.75;99549.41;1678544;85;21436;-78
2022/10/09 10:19:28;;;;;;;5.37;3.00;;;;;;;17.91;58.39;99545.10;1678301;85;20999;-78
2022/10/09 10:22:00;;;;;;;5.85;2.52;;;;;;;18.03;58.46;99546.02;1678652;85;21014;-78
2022/10/09 10:24:41;;;;;;;4.40;2.22;;;;;;;18.16;58.13;99547.69;1670356;85;21015;-77
2022/10/09 10:27:28;;;;;;;5.58;2.55;;;;;;;18.28;57.51;99551.22;1645034;86;21115;-77
2022/10/09 10:29:59;;;;;;;7.95;3.00;;;;;;;18.41;57.51;99552.48;1674541;85;21079;-77
2022/10/09 10:32:37;;;;;;;6.50;2.75;;;;;;;18.52;57.07;99550.77;1665888;85;21554;-77
2022/10/09 10:35:16;;;;;;;4.58;2.20;;;;;;;18.64;57.15;99550.37;1676509;85;21075;-77
2022/10/09 10:38:21;;;;;;;5.92;2.95;;;;;;;18.74;56.93;99547.44;1678451;85;21546;-76
2022/10/09 10:41:06;;;;;;;5.10;2.30;;;;;;;18.81;56.69;99550.44;1678732;85;22047;-78
2022/10/09 10:43:52;;;;;;;9.33;2.87;;;;;;;18.87;55.88;99550.84;1654026;85;21062;-78
2022/10/09 10:46:47;;;;;;;3.62;2.60;;;;;;;18.91;56.12;99549.66;1675832;85;21004;-78
2022/10/09 10:49:19;;;;;;;5.35;2.75;;;;;;;18.97;56.26;99548.84;1657569;85;21018;-78
2022/10/09 10:52:08;;;;;;;6.60;2.70;;;;;;;19.03;56.05;99543.94;1678760;85;21027;-77
2022/10/09 10:54:56;;;;;;;5.80;2.60;;;;;;;19.10;55.93;99541.69;1678576;85;21124;-77
2022/10/09 10:57:46;;;;;;;13.38;3.08;;;;;;;19.17;55.44;99535.84;1678719;85;20979;-76
2022/10/09 11:00:12;;;;;;;7.62;3.25;;;;;;;19.24;54.90;99539.68;1675990;85;21063;-79
2022/10/09 11:03:10;;;;;;;4.12;2.85;;;;;;;19.30;54.91;99536.22;1676141;85;21045;-77
2022/10/09 11:06:17;;;;;;;4.75;2.83;;;;;;;19.36;54.28;99533.12;1672829;85;21110;-77
2022/10/09 11:09:10;;;;;;;3.37;2.52;;;;;;;19.39;53.96;99529.75;1669989;85;21156;-78
2022/10/09 11:11:46;;;;;;;10.32;2.70;;;;;;;19.44;54.05;99526.77;1678714;85;20967;-78
2022/10/09 11:15:02;;;;;;;12.45;3.70;;;;;;;19.51;53.70;99518.78;1678905;85;21443;-78
2022/10/09 11:18:06;;;;;;;7.08;3.30;;;;;;;19.59;53.60;99522.97;1678749;85;21027;-78
2022/10/09 11:20:53;;;;;;;8.48;3.67;;;;;;;19.58;53.03;99524.77;1646279;85;21036;-77
2022/10/09 11:23:51;;;;;;;5.67;4.15;;;;;;;19.48;52.83;99525.09;1651167;85;21301;-79
2022/10/09 11:26:59;;;;;;;11.83;4.55;;;;;;;19.36;53.46;99528.69;1660441;86;21173;-79
2022/10/09 11:29:46;;;;;;;12.60;6.40;;;;;;;19.22;53.70;99528.88;1666573;84;20994;-77
2022/10/09 11:32:25;;;;;;;12.68;7.95;;;;;;;19.10;55.28;99521.92;1678433;84;21134;-78
2022/10/09 11:35:23;;;;;;;12.25;6.33;;;;;;;19.10;56.45;99526.71;1657140;86;21066;-74
2022/10/09 11:37:58;;;;;;;10.18;7.70;;;;;;;19.14;58.73;99527.33;1652781;86;21184;-75
2022/10/09 11:40:35;;;;;;;10.93;6.72;;;;;;;19.10;59.85;99527.19;1651875;86;21591;-75
2022/10/09 11:43:29;;;;;;;15.13;7.67;;;;;;;19.03;60.52;99529.91;1626550;87;21039;-77
2022/10/09 11:46:11;;;;;;;8.73;7.45;;;;;;;18.91;61.12;99527.25;1613025;87;21095;-76
2022/10/09 11:49:10;;;;;;;12.15;7.35;;;;;;;18.82;61.55;99537.63;1628290;87;21108;-76